sensor_id;sensor_type;location;lat;lon;timestamp;P1;durP1;ratioP1;P2;durP2;ratioP2
37859;SDS011;23698;52.014;5.190;2022-08-03T00:02:49;7.88;;;1.92;;
37859;SDS011;23698;52.014;5.190;2022-08-03T00:05:55;5.78;;;2.22;;
37859;SDS011;23698;52.014;5.190;2022-08-03T00:09:09;5.35;;;2.00;;
37859;SDS011;23698;52.014;5.190;2022-08-03T00:12:15;6.30;;;2.58;;
37859;SDS011;23698;52.014;5.190;2022-08-03T00:15:21;9.93;;;2.38;;
37859;SDS011;23698;52.014;5.190;2022-08-03T00:18:28;6.47;;;1.90;;
37859;SDS011;23698;52.014;5.190;2022-08-03T00:21:33;11.13;;;2.58;;
37859;SDS011;23698;52.014;5.190;2022-08-03T00:24:40;10.02;;;3.08;;
37859;SDS011;23698;52.014;5.190;2022-08-03T00:27:45;11.48;;;3.22;;
37859;SDS011;23698;52.014;5.190;2022-08-03T00:30:50;10.73;;;3.60;;
37859;SDS011;23698;52.014;5.190;2022-08-03T00:33:55;7.03;;;3.08;;
37859;SDS011;23698;52.014;5.190;2022-08-03T00:37:06;12.68;;;3.13;;
37859;SDS011;23698;52.014;5.190;2022-08-03T00:40:13;11.63;;;2.90;;
37859;SDS011;23698;52.014;5.190;2022-08-03T00:43:23;11.27;;;3.25;;
37859;SDS011;23698;52.014;5.190;2022-08-03T00:46:29;8.48;;;3.92;;
37859;SDS011;23698;52.014;5.190;2022-08-03T00:49:34;7.60;;;3.65;;
37859;SDS011;23698;52.014;5.190;2022-08-03T00:52:40;12.57;;;3.95;;
37859;SDS011;23698;52.014;5.190;2022-08-03T00:55:47;8.05;;;3.10;;
37859;SDS011;23698;52.014;5.190;2022-08-03T00:58:52;9.52;;;3.35;;
37859;SDS011;23698;52.014;5.190;2022-08-03T01:02:00;10.25;;;3.65;;
37859;SDS011;23698;52.014;5.190;2022-08-03T01:05:05;11.95;;;4.53;;
37859;SDS011;23698;52.014;5.190;2022-08-03T01:08:12;8.68;;;3.45;;
37859;SDS011;23698;52.014;5.190;2022-08-03T01:11:30;9.95;;;3.58;;
37859;SDS011;23698;52.014;5.190;2022-08-03T01:15:04;12.82;;;3.83;;
37859;SDS011;23698;52.014;5.190;2022-08-03T01:18:17;8.63;;;3.30;;
37859;SDS011;23698;52.014;5.190;2022-08-03T01:21:26;10.15;;;3.67;;
37859;SDS011;23698;52.014;5.190;2022-08-03T01:24:38;12.90;;;3.58;;
37859;SDS011;23698;52.014;5.190;2022-08-03T01:27:57;9.85;;;4.10;;
37859;SDS011;23698;52.014;5.190;2022-08-03T01:31:10;8.40;;;3.72;;
37859;SDS011;23698;52.014;5.190;2022-08-03T01:34:20;10.13;;;3.67;;
37859;SDS011;23698;52.014;5.190;2022-08-03T01:37:30;13.88;;;4.65;;
37859;SDS011;23698;52.014;5.190;2022-08-03T01:40:41;18.00;;;4.28;;
37859;SDS011;23698;52.014;5.190;2022-08-03T01:43:50;13.90;;;3.92;;
37859;SDS011;23698;52.014;5.190;2022-08-03T01:47:19;12.30;;;4.60;;
37859;SDS011;23698;52.014;5.190;2022-08-03T01:50:26;10.13;;;4.20;;
37859;SDS011;23698;52.014;5.190;2022-08-03T01:53:34;10.05;;;4.47;;
37859;SDS011;23698;52.014;5.190;2022-08-03T01:56:45;8.80;;;4.25;;
37859;SDS011;23698;52.014;5.190;2022-08-03T01:59:52;14.10;;;4.97;;
37859;SDS011;23698;52.014;5.190;2022-08-03T02:03:02;16.35;;;4.10;;
37859;SDS011;23698;52.014;5.190;2022-08-03T02:06:09;10.15;;;3.55;;
37859;SDS011;23698;52.014;5.190;2022-08-03T02:09:36;16.17;;;5.03;;
37859;SDS011;23698;52.014;5.190;2022-08-03T02:12:43;14.10;;;4.47;;
37859;SDS011;23698;52.014;5.190;2022-08-03T02:15:54;14.20;;;3.92;;
37859;SDS011;23698;52.014;5.190;2022-08-03T02:19:03;14.70;;;4.35;;
37859;SDS011;23698;52.014;5.190;2022-08-03T02:22:11;12.15;;;4.05;;
37859;SDS011;23698;52.014;5.190;2022-08-03T02:25:18;10.57;;;4.25;;
37859;SDS011;23698;52.014;5.190;2022-08-03T02:28:28;11.73;;;3.80;;
37859;SDS011;23698;52.014;5.190;2022-08-03T02:31:39;12.15;;;3.30;;
37859;SDS011;23698;52.014;5.190;2022-08-03T02:34:49;12.57;;;3.95;;
37859;SDS011;23698;52.014;5.190;2022-08-03T02:37:57;11.48;;;4.32;;
37859;SDS011;23698;52.014;5.190;2022-08-03T02:41:06;14.65;;;4.03;;
37859;SDS011;23698;52.014;5.190;2022-08-03T02:44:24;8.93;;;3.88;;
37859;SDS011;23698;52.014;5.190;2022-08-03T02:47:31;17.55;;;4.38;;
37859;SDS011;23698;52.014;5.190;2022-08-03T02:50:58;16.92;;;4.43;;
37859;SDS011;23698;52.014;5.190;2022-08-03T02:54:06;14.20;;;4.38;;
37859;SDS011;23698;52.014;5.190;2022-08-03T02:57:13;19.88;;;5.15;;
37859;SDS011;23698;52.014;5.190;2022-08-03T03:00:19;12.18;;;5.57;;
37859;SDS011;23698;52.014;5.190;2022-08-03T03:03:32;14.40;;;4.40;;
37859;SDS011;23698;52.014;5.190;2022-08-03T03:06:49;17.60;;;5.22;;
37859;SDS011;23698;52.014;5.190;2022-08-03T03:09:58;12.25;;;5.53;;
37859;SDS011;23698;52.014;5.190;2022-08-03T03:13:05;12.60;;;4.75;;
37859;SDS011;23698;52.014;5.190;2022-08-03T03:16:12;9.70;;;4.10;;
37859;SDS011;23698;52.014;5.190;2022-08-03T03:19:19;16.63;;;4.97;;
37859;SDS011;23698;52.014;5.190;2022-08-03T03:22:27;11.50;;;4.75;;
37859;SDS011;23698;52.014;5.190;2022-08-03T03:25:34;12.00;;;4.63;;
37859;SDS011;23698;52.014;5.190;2022-08-03T03:28:41;17.10;;;5.05;;
37859;SDS011;23698;52.014;5.190;2022-08-03T03:31:48;12.85;;;5.13;;
37859;SDS011;23698;52.014;5.190;2022-08-03T03:34:53;13.82;;;5.80;;
37859;SDS011;23698;52.014;5.190;2022-08-03T03:38:03;17.02;;;5.03;;
37859;SDS011;23698;52.014;5.190;2022-08-03T03:41:08;10.45;;;4.65;;
37859;SDS011;23698;52.014;5.190;2022-08-03T03:44:14;15.10;;;4.70;;
37859;SDS011;23698;52.014;5.190;2022-08-03T03:47:20;16.20;;;4.75;;
37859;SDS011;23698;52.014;5.190;2022-08-03T03:50:35;15.35;;;4.95;;
37859;SDS011;23698;52.014;5.190;2022-08-03T03:53:54;13.00;;;4.57;;
37859;SDS011;23698;52.014;5.190;2022-08-03T03:57:01;12.00;;;4.95;;
37859;SDS011;23698;52.014;5.190;2022-08-03T04:00:07;12.23;;;4.45;;
37859;SDS011;23698;52.014;5.190;2022-08-03T04:03:14;16.80;;;4.47;;
37859;SDS011;23698;52.014;5.190;2022-08-03T04:06:19;15.25;;;5.10;;
37859;SDS011;23698;52.014;5.190;2022-08-03T04:09:43;17.60;;;5.22;;
37859;SDS011;23698;52.014;5.190;2022-08-03T04:13:18;17.50;;;4.25;;
37859;SDS011;23698;52.014;5.190;2022-08-03T04:16:26;15.05;;;4.35;;
37859;SDS011;23698;52.014;5.190;2022-08-03T04:19:35;14.30;;;4.80;;
37859;SDS011;23698;52.014;5.190;2022-08-03T04:22:44;19.60;;;5.90;;
37859;SDS011;23698;52.014;5.190;2022-08-03T04:25:53;19.65;;;6.00;;
37859;SDS011;23698;52.014;5.190;2022-08-03T04:29:02;22.02;;;6.50;;
37859;SDS011;23698;52.014;5.190;2022-08-03T04:32:08;21.95;;;8.35;;
37859;SDS011;23698;52.014;5.190;2022-08-03T04:35:16;20.23;;;5.60;;
37859;SDS011;23698;52.014;5.190;2022-08-03T04:38:22;17.65;;;5.15;;
37859;SDS011;23698;52.014;5.190;2022-08-03T04:41:30;18.35;;;5.45;;
37859;SDS011;23698;52.014;5.190;2022-08-03T04:44:56;14.65;;;4.95;;
37859;SDS011;23698;52.014;5.190;2022-08-03T04:48:04;18.25;;;5.30;;
37859;SDS011;23698;52.014;5.190;2022-08-03T04:51:10;13.68;;;5.22;;
37859;SDS011;23698;52.014;5.190;2022-08-03T04:54:16;11.35;;;5.10;;
37859;SDS011;23698;52.014;5.190;2022-08-03T04:57:23;29.63;;;9.98;;
37859;SDS011;23698;52.014;5.190;2022-08-03T05:00:28;20.50;;;9.75;;
37859;SDS011;23698;52.014;5.190;2022-08-03T05:03:34;13.52;;;5.43;;
37859;SDS011;23698;52.014;5.190;2022-08-03T05:06:39;13.68;;;4.97;;
37859;SDS011;23698;52.014;5.190;2022-08-03T05:09:51;23.80;;;5.00;;
37859;SDS011;23698;52.014;5.190;2022-08-03T05:13:07;21.98;;;5.10;;
37859;SDS011;23698;52.014;5.190;2022-08-03T05:16:14;27.65;;;6.47;;
37859;SDS011;23698;52.014;5.190;2022-08-03T05:19:19;38.13;;;6.70;;
37859;SDS011;23698;52.014;5.190;2022-08-03T05:22:24;27.00;;;5.50;;
37859;SDS011;23698;52.014;5.190;2022-08-03T05:25:30;29.20;;;5.97;;
37859;SDS011;23698;52.014;5.190;2022-08-03T05:28:36;15.90;;;6.10;;
37859;SDS011;23698;52.014;5.190;2022-08-03T05:31:54;32.30;;;7.60;;
37859;SDS011;23698;52.014;5.190;2022-08-03T05:34:59;20.08;;;6.00;;
37859;SDS011;23698;52.014;5.190;2022-08-03T05:38:24;22.48;;;6.07;;
37859;SDS011;23698;52.014;5.190;2022-08-03T05:41:37;22.88;;;10.02;;
37859;SDS011;23698;52.014;5.190;2022-08-03T05:44:44;16.58;;;5.32;;
37859;SDS011;23698;52.014;5.190;2022-08-03T05:47:50;28.33;;;5.75;;
37859;SDS011;23698;52.014;5.190;2022-08-03T05:50:55;27.92;;;7.80;;
37859;SDS011;23698;52.014;5.190;2022-08-03T05:54:00;33.30;;;5.60;;
37859;SDS011;23698;52.014;5.190;2022-08-03T05:57:06;23.50;;;5.13;;
37859;SDS011;23698;52.014;5.190;2022-08-03T06:00:13;31.95;;;6.20;;
37859;SDS011;23698;52.014;5.190;2022-08-03T06:03:18;28.85;;;5.82;;
37859;SDS011;23698;52.014;5.190;2022-08-03T06:06:25;27.17;;;5.97;;
37859;SDS011;23698;52.014;5.190;2022-08-03T06:09:35;22.35;;;5.53;;
37859;SDS011;23698;52.014;5.190;2022-08-03T06:13:00;15.45;;;4.43;;
37859;SDS011;23698;52.014;5.190;2022-08-03T06:16:06;23.67;;;4.75;;
37859;SDS011;23698;52.014;5.190;2022-08-03T06:19:12;13.02;;;4.18;;
37859;SDS011;23698;52.014;5.190;2022-08-03T06:22:17;19.38;;;4.70;;
37859;SDS011;23698;52.014;5.190;2022-08-03T06:25:24;8.93;;;3.38;;
37859;SDS011;23698;52.014;5.190;2022-08-03T06:28:30;9.73;;;4.13;;
37859;SDS011;23698;52.014;5.190;2022-08-03T06:31:56;19.92;;;5.15;;
37859;SDS011;23698;52.014;5.190;2022-08-03T06:35:02;15.88;;;4.43;;
37859;SDS011;23698;52.014;5.190;2022-08-03T06:38:07;16.38;;;4.22;;
37859;SDS011;23698;52.014;5.190;2022-08-03T06:41:13;13.20;;;3.95;;
37859;SDS011;23698;52.014;5.190;2022-08-03T06:44:19;14.82;;;4.55;;
37859;SDS011;23698;52.014;5.190;2022-08-03T06:47:25;23.10;;;4.53;;
37859;SDS011;23698;52.014;5.190;2022-08-03T06:50:31;14.57;;;3.70;;
37859;SDS011;23698;52.014;5.190;2022-08-03T06:53:37;21.83;;;4.25;;
37859;SDS011;23698;52.014;5.190;2022-08-03T06:56:42;20.42;;;4.15;;
37859;SDS011;23698;52.014;5.190;2022-08-03T06:59:47;22.30;;;3.80;;
37859;SDS011;23698;52.014;5.190;2022-08-03T07:03:14;16.27;;;4.15;;
37859;SDS011;23698;52.014;5.190;2022-08-03T07:06:19;17.33;;;4.07;;
37859;SDS011;23698;52.014;5.190;2022-08-03T07:09:24;20.83;;;4.47;;
37859;SDS011;23698;52.014;5.190;2022-08-03T07:12:31;12.57;;;3.85;;
37859;SDS011;23698;52.014;5.190;2022-08-03T07:15:36;16.83;;;3.70;;
37859;SDS011;23698;52.014;5.190;2022-08-03T07:19:00;13.23;;;3.90;;
37859;SDS011;23698;52.014;5.190;2022-08-03T07:22:05;20.13;;;4.07;;
37859;SDS011;23698;52.014;5.190;2022-08-03T07:25:11;20.67;;;4.10;;
37859;SDS011;23698;52.014;5.190;2022-08-03T07:28:17;19.02;;;3.67;;
37859;SDS011;23698;52.014;5.190;2022-08-03T07:31:22;15.27;;;3.78;;
37859;SDS011;23698;52.014;5.190;2022-08-03T07:34:29;13.82;;;4.32;;
37859;SDS011;23698;52.014;5.190;2022-08-03T07:37:35;19.60;;;4.13;;
37859;SDS011;23698;52.014;5.190;2022-08-03T07:40:40;13.95;;;3.70;;
37859;SDS011;23698;52.014;5.190;2022-08-03T07:43:49;14.88;;;3.92;;
37859;SDS011;23698;52.014;5.190;2022-08-03T07:46:55;18.20;;;4.38;;
37859;SDS011;23698;52.014;5.190;2022-08-03T07:50:03;16.23;;;3.40;;
37859;SDS011;23698;52.014;5.190;2022-08-03T07:56:16;13.88;;;3.42;;
37859;SDS011;23698;52.014;5.190;2022-08-03T07:59:22;19.73;;;3.97;;
37859;SDS011;23698;52.014;5.190;2022-08-03T08:02:27;16.50;;;3.60;;
37859;SDS011;23698;52.014;5.190;2022-08-03T08:05:34;17.38;;;4.25;;
37859;SDS011;23698;52.014;5.190;2022-08-03T08:08:40;20.27;;;3.63;;
37859;SDS011;23698;52.014;5.190;2022-08-03T08:11:45;15.40;;;3.75;;
37859;SDS011;23698;52.014;5.190;2022-08-03T08:14:50;21.23;;;3.97;;
37859;SDS011;23698;52.014;5.190;2022-08-03T08:17:56;11.57;;;3.22;;
37859;SDS011;23698;52.014;5.190;2022-08-03T08:21:04;11.95;;;3.55;;
37859;SDS011;23698;52.014;5.190;2022-08-03T08:24:11;17.45;;;3.40;;
37859;SDS011;23698;52.014;5.190;2022-08-03T08:27:21;12.90;;;3.00;;
37859;SDS011;23698;52.014;5.190;2022-08-03T08:30:26;14.00;;;4.10;;
37859;SDS011;23698;52.014;5.190;2022-08-03T08:33:34;19.33;;;3.80;;
37859;SDS011;23698;52.014;5.190;2022-08-03T08:37:00;18.27;;;3.55;;
37859;SDS011;23698;52.014;5.190;2022-08-03T08:40:06;20.60;;;4.00;;
37859;SDS011;23698;52.014;5.190;2022-08-03T08:43:13;13.45;;;3.42;;
37859;SDS011;23698;52.014;5.190;2022-08-03T08:46:19;19.30;;;4.57;;
37859;SDS011;23698;52.014;5.190;2022-08-03T08:49:26;15.57;;;3.50;;
37859;SDS011;23698;52.014;5.190;2022-08-03T08:52:34;21.02;;;3.65;;
37859;SDS011;23698;52.014;5.190;2022-08-03T08:55:40;23.58;;;3.92;;
37859;SDS011;23698;52.014;5.190;2022-08-03T08:59:02;20.88;;;3.67;;
37859;SDS011;23698;52.014;5.190;2022-08-03T09:02:08;15.18;;;2.95;;
37859;SDS011;23698;52.014;5.190;2022-08-03T09:05:14;18.67;;;3.75;;
37859;SDS011;23698;52.014;5.190;2022-08-03T09:08:22;13.18;;;2.83;;
37859;SDS011;23698;52.014;5.190;2022-08-03T09:11:28;18.10;;;4.13;;
37859;SDS011;23698;52.014;5.190;2022-08-03T09:14:54;16.50;;;3.50;;
37859;SDS011;23698;52.014;5.190;2022-08-03T09:18:27;13.18;;;3.78;;
37859;SDS011;23698;52.014;5.190;2022-08-03T09:21:35;12.15;;;3.10;;
37859;SDS011;23698;52.014;5.190;2022-08-03T09:24:54;16.50;;;3.55;;
37859;SDS011;23698;52.014;5.190;2022-08-03T09:28:21;16.13;;;3.30;;
37859;SDS011;23698;52.014;5.190;2022-08-03T09:31:46;18.02;;;3.85;;
37859;SDS011;23698;52.014;5.190;2022-08-03T09:34:51;19.15;;;3.40;;
37859;SDS011;23698;52.014;5.190;2022-08-03T09:38:10;14.20;;;4.70;;
37859;SDS011;23698;52.014;5.190;2022-08-03T09:41:19;19.10;;;5.13;;
37859;SDS011;23698;52.014;5.190;2022-08-03T09:44:25;14.98;;;3.65;;
37859;SDS011;23698;52.014;5.190;2022-08-03T09:47:38;14.85;;;3.45;;
37859;SDS011;23698;52.014;5.190;2022-08-03T09:50:48;14.80;;;3.22;;
37859;SDS011;23698;52.014;5.190;2022-08-03T09:54:24;13.52;;;2.88;;
37859;SDS011;23698;52.014;5.190;2022-08-03T09:57:31;13.93;;;3.15;;
37859;SDS011;23698;52.014;5.190;2022-08-03T10:00:51;15.45;;;3.45;;
37859;SDS011;23698;52.014;5.190;2022-08-03T10:03:57;10.95;;;2.90;;
37859;SDS011;23698;52.014;5.190;2022-08-03T10:07:07;15.45;;;3.15;;
37859;SDS011;23698;52.014;5.190;2022-08-03T10:10:14;14.05;;;5.07;;
37859;SDS011;23698;52.014;5.190;2022-08-03T10:13:36;19.77;;;4.05;;
37859;SDS011;23698;52.014;5.190;2022-08-03T10:16:47;16.23;;;3.10;;
37859;SDS011;23698;52.014;5.190;2022-08-03T10:19:53;20.70;;;3.33;;
37859;SDS011;23698;52.014;5.190;2022-08-03T10:22:59;12.55;;;3.20;;
37859;SDS011;23698;52.014;5.190;2022-08-03T10:26:06;11.40;;;2.92;;
37859;SDS011;23698;52.014;5.190;2022-08-03T10:29:20;14.43;;;3.10;;
37859;SDS011;23698;52.014;5.190;2022-08-03T10:32:29;16.60;;;3.00;;
37859;SDS011;23698;52.014;5.190;2022-08-03T10:35:35;17.13;;;2.75;;
37859;SDS011;23698;52.014;5.190;2022-08-03T10:38:46;8.82;;;2.78;;
37859;SDS011;23698;52.014;5.190;2022-08-03T10:41:56;13.45;;;2.80;;
37859;SDS011;23698;52.014;5.190;2022-08-03T10:45:08;17.83;;;4.18;;
37859;SDS011;23698;52.014;5.190;2022-08-03T10:48:18;15.60;;;3.28;;
37859;SDS011;23698;52.014;5.190;2022-08-03T10:51:24;25.10;;;2.85;;
37859;SDS011;23698;52.014;5.190;2022-08-03T10:54:38;12.38;;;2.60;;
37859;SDS011;23698;52.014;5.190;2022-08-03T10:58:03;14.10;;;3.15;;
37859;SDS011;23698;52.014;5.190;2022-08-03T11:01:15;11.80;;;2.63;;
37859;SDS011;23698;52.014;5.190;2022-08-03T11:04:22;11.68;;;2.78;;
37859;SDS011;23698;52.014;5.190;2022-08-03T11:07:28;10.48;;;3.10;;
37859;SDS011;23698;52.014;5.190;2022-08-03T11:10:33;13.38;;;2.53;;
37859;SDS011;23698;52.014;5.190;2022-08-03T11:13:39;19.65;;;2.80;;
37859;SDS011;23698;52.014;5.190;2022-08-03T11:17:06;17.13;;;3.00;;
37859;SDS011;23698;52.014;5.190;2022-08-03T11:20:18;16.60;;;3.30;;
37859;SDS011;23698;52.014;5.190;2022-08-03T11:23:50;9.10;;;2.42;;
37859;SDS011;23698;52.014;5.190;2022-08-03T11:27:15;17.35;;;3.60;;
37859;SDS011;23698;52.014;5.190;2022-08-03T11:30:22;9.88;;;2.75;;
37859;SDS011;23698;52.014;5.190;2022-08-03T11:33:32;13.63;;;2.60;;
37859;SDS011;23698;52.014;5.190;2022-08-03T11:43:43;9.60;;;2.88;;
37859;SDS011;23698;52.014;5.190;2022-08-03T11:46:49;12.65;;;2.90;;
37859;SDS011;23698;52.014;5.190;2022-08-03T11:49:56;11.35;;;2.72;;
37859;SDS011;23698;52.014;5.190;2022-08-03T11:53:04;14.60;;;2.55;;
37859;SDS011;23698;52.014;5.190;2022-08-03T11:56:11;9.20;;;2.35;;
37859;SDS011;23698;52.014;5.190;2022-08-03T11:59:16;11.57;;;2.70;;
37859;SDS011;23698;52.014;5.190;2022-08-03T12:02:25;11.70;;;2.75;;
37859;SDS011;23698;52.014;5.190;2022-08-03T12:05:39;7.47;;;2.08;;
37859;SDS011;23698;52.014;5.190;2022-08-03T12:08:54;13.63;;;2.72;;
37859;SDS011;23698;52.014;5.190;2022-08-03T12:12:00;13.80;;;3.17;;
37859;SDS011;23698;52.014;5.190;2022-08-03T12:15:05;12.43;;;2.30;;
37859;SDS011;23698;52.014;5.190;2022-08-03T12:18:12;12.13;;;2.65;;
37859;SDS011;23698;52.014;5.190;2022-08-03T12:21:20;11.25;;;2.42;;
37859;SDS011;23698;52.014;5.190;2022-08-03T12:24:38;7.53;;;2.22;;
37859;SDS011;23698;52.014;5.190;2022-08-03T12:27:44;11.38;;;2.20;;
37859;SDS011;23698;52.014;5.190;2022-08-03T12:30:50;9.00;;;3.05;;
37859;SDS011;23698;52.014;5.190;2022-08-03T12:33:58;12.68;;;2.90;;
37859;SDS011;23698;52.014;5.190;2022-08-03T12:37:07;9.38;;;2.50;;
37859;SDS011;23698;52.014;5.190;2022-08-03T12:40:25;10.95;;;2.58;;
37859;SDS011;23698;52.014;5.190;2022-08-03T12:43:31;5.95;;;1.73;;
37859;SDS011;23698;52.014;5.190;2022-08-03T12:46:42;8.13;;;2.65;;
37859;SDS011;23698;52.014;5.190;2022-08-03T12:49:51;3.80;;;2.00;;
37859;SDS011;23698;52.014;5.190;2022-08-03T12:52:59;5.18;;;2.35;;
37859;SDS011;23698;52.014;5.190;2022-08-03T12:56:05;6.47;;;2.40;;
37859;SDS011;23698;52.014;5.190;2022-08-03T12:59:23;7.15;;;2.47;;
37859;SDS011;23698;52.014;5.190;2022-08-03T13:02:38;8.45;;;3.20;;
37859;SDS011;23698;52.014;5.190;2022-08-03T13:05:49;9.27;;;2.88;;
37859;SDS011;23698;52.014;5.190;2022-08-03T13:09:02;8.63;;;2.72;;
37859;SDS011;23698;52.014;5.190;2022-08-03T13:12:09;7.35;;;2.45;;
37859;SDS011;23698;52.014;5.190;2022-08-03T13:15:15;9.70;;;3.00;;
37859;SDS011;23698;52.014;5.190;2022-08-03T13:18:21;6.50;;;3.17;;
37859;SDS011;23698;52.014;5.190;2022-08-03T13:21:26;6.45;;;2.95;;
37859;SDS011;23698;52.014;5.190;2022-08-03T13:24:32;13.85;;;2.83;;
37859;SDS011;23698;52.014;5.190;2022-08-03T13:27:38;9.38;;;3.05;;
37859;SDS011;23698;52.014;5.190;2022-08-03T13:31:04;6.57;;;2.58;;
37859;SDS011;23698;52.014;5.190;2022-08-03T13:34:09;9.00;;;2.72;;
37859;SDS011;23698;52.014;5.190;2022-08-03T13:37:15;8.75;;;2.53;;
37859;SDS011;23698;52.014;5.190;2022-08-03T13:40:22;9.00;;;2.55;;
37859;SDS011;23698;52.014;5.190;2022-08-03T13:43:33;6.18;;;2.63;;
37859;SDS011;23698;52.014;5.190;2022-08-03T13:46:38;5.40;;;2.30;;
37859;SDS011;23698;52.014;5.190;2022-08-03T13:49:44;5.97;;;2.13;;
37859;SDS011;23698;52.014;5.190;2022-08-03T13:53:04;5.82;;;2.05;;
37859;SDS011;23698;52.014;5.190;2022-08-03T13:56:11;8.13;;;2.22;;
37859;SDS011;23698;52.014;5.190;2022-08-03T13:59:16;5.40;;;2.38;;
37859;SDS011;23698;52.014;5.190;2022-08-03T14:02:21;7.15;;;2.88;;
37859;SDS011;23698;52.014;5.190;2022-08-03T14:05:27;8.02;;;2.65;;
37859;SDS011;23698;52.014;5.190;2022-08-03T14:08:35;11.90;;;2.30;;
37859;SDS011;23698;52.014;5.190;2022-08-03T14:11:42;5.32;;;1.90;;
37859;SDS011;23698;52.014;5.190;2022-08-03T14:15:08;4.90;;;1.98;;
37859;SDS011;23698;52.014;5.190;2022-08-03T14:18:16;5.75;;;2.03;;
37859;SDS011;23698;52.014;5.190;2022-08-03T14:21:32;9.68;;;2.10;;
37859;SDS011;23698;52.014;5.190;2022-08-03T14:24:38;8.75;;;2.35;;
37859;SDS011;23698;52.014;5.190;2022-08-03T14:27:44;3.95;;;2.00;;
37859;SDS011;23698;52.014;5.190;2022-08-03T14:30:51;9.20;;;2.72;;
37859;SDS011;23698;52.014;5.190;2022-08-03T14:33:58;7.80;;;3.10;;
37859;SDS011;23698;52.014;5.190;2022-08-03T14:37:03;8.85;;;2.17;;
37859;SDS011;23698;52.014;5.190;2022-08-03T14:40:09;5.72;;;1.60;;
37859;SDS011;23698;52.014;5.190;2022-08-03T14:43:16;7.97;;;2.35;;
37859;SDS011;23698;52.014;5.190;2022-08-03T14:46:23;3.50;;;1.35;;
37859;SDS011;23698;52.014;5.190;2022-08-03T14:49:29;5.25;;;1.80;;
37859;SDS011;23698;52.014;5.190;2022-08-03T14:52:55;5.43;;;1.42;;
37859;SDS011;23698;52.014;5.190;2022-08-03T14:56:01;5.82;;;1.35;;
37859;SDS011;23698;52.014;5.190;2022-08-03T14:59:14;9.02;;;1.90;;
37859;SDS011;23698;52.014;5.190;2022-08-03T15:02:20;3.35;;;1.50;;
37859;SDS011;23698;52.014;5.190;2022-08-03T15:05:27;8.05;;;1.92;;
37859;SDS011;23698;52.014;5.190;2022-08-03T15:08:32;5.97;;;1.58;;
37859;SDS011;23698;52.014;5.190;2022-08-03T15:11:38;3.92;;;1.48;;
37859;SDS011;23698;52.014;5.190;2022-08-03T15:14:44;5.60;;;2.25;;
37859;SDS011;23698;52.014;5.190;2022-08-03T15:17:50;9.43;;;2.17;;
37859;SDS011;23698;52.014;5.190;2022-08-03T15:21:03;4.82;;;1.77;;
37859;SDS011;23698;52.014;5.190;2022-08-03T15:24:30;6.80;;;1.60;;
37859;SDS011;23698;52.014;5.190;2022-08-03T15:27:36;6.30;;;1.60;;
37859;SDS011;23698;52.014;5.190;2022-08-03T15:31:02;5.68;;;1.80;;
37859;SDS011;23698;52.014;5.190;2022-08-03T15:34:08;4.10;;;1.60;;
37859;SDS011;23698;52.014;5.190;2022-08-03T15:37:14;5.03;;;1.98;;
37859;SDS011;23698;52.014;5.190;2022-08-03T15:40:20;5.07;;;1.63;;
37859;SDS011;23698;52.014;5.190;2022-08-03T15:43:26;7.28;;;1.90;;
37859;SDS011;23698;52.014;5.190;2022-08-03T15:46:33;7.20;;;1.98;;
37859;SDS011;23698;52.014;5.190;2022-08-03T15:49:38;4.55;;;1.55;;
37859;SDS011;23698;52.014;5.190;2022-08-03T15:52:43;9.88;;;1.92;;
37859;SDS011;23698;52.014;5.190;2022-08-03T15:55:48;6.57;;;1.58;;
37859;SDS011;23698;52.014;5.190;2022-08-03T15:58:53;7.43;;;2.10;;
37859;SDS011;23698;52.014;5.190;2022-08-03T16:02:17;6.68;;;2.03;;
37859;SDS011;23698;52.014;5.190;2022-08-03T16:05:23;6.47;;;2.88;;
37859;SDS011;23698;52.014;5.190;2022-08-03T16:08:28;8.25;;;4.80;;
37859;SDS011;23698;52.014;5.190;2022-08-03T16:11:34;9.10;;;2.20;;
37859;SDS011;23698;52.014;5.190;2022-08-03T16:14:40;5.00;;;1.60;;
37859;SDS011;23698;52.014;5.190;2022-08-03T16:17:57;8.40;;;2.22;;
37859;SDS011;23698;52.014;5.190;2022-08-03T16:21:02;7.65;;;2.67;;
37859;SDS011;23698;52.014;5.190;2022-08-03T16:24:10;8.75;;;2.53;;
37859;SDS011;23698;52.014;5.190;2022-08-03T16:27:23;4.93;;;2.25;;
37859;SDS011;23698;52.014;5.190;2022-08-03T16:30:48;5.10;;;1.65;;
37859;SDS011;23698;52.014;5.190;2022-08-03T16:33:55;6.38;;;2.83;;
37859;SDS011;23698;52.014;5.190;2022-08-03T16:37:02;4.65;;;2.15;;
37859;SDS011;23698;52.014;5.190;2022-08-03T16:40:28;8.00;;;1.75;;
37859;SDS011;23698;52.014;5.190;2022-08-03T16:43:33;6.85;;;2.10;;
37859;SDS011;23698;52.014;5.190;2022-08-03T16:46:38;7.55;;;1.80;;
37859;SDS011;23698;52.014;5.190;2022-08-03T16:49:46;7.47;;;2.00;;
37859;SDS011;23698;52.014;5.190;2022-08-03T16:52:58;4.53;;;2.17;;
37859;SDS011;23698;52.014;5.190;2022-08-03T16:56:06;8.30;;;2.78;;
37859;SDS011;23698;52.014;5.190;2022-08-03T16:59:13;4.80;;;1.88;;
37859;SDS011;23698;52.014;5.190;2022-08-03T17:02:20;8.57;;;2.00;;
37859;SDS011;23698;52.014;5.190;2022-08-03T17:05:30;6.68;;;1.58;;
37859;SDS011;23698;52.014;5.190;2022-08-03T17:08:50;5.22;;;1.65;;
37859;SDS011;23698;52.014;5.190;2022-08-03T17:11:58;6.00;;;1.35;;
37859;SDS011;23698;52.014;5.190;2022-08-03T17:15:05;8.02;;;1.65;;
37859;SDS011;23698;52.014;5.190;2022-08-03T17:18:13;3.60;;;1.45;;
37859;SDS011;23698;52.014;5.190;2022-08-03T17:21:26;4.93;;;1.58;;
37859;SDS011;23698;52.014;5.190;2022-08-03T17:24:38;3.90;;;1.40;;
37859;SDS011;23698;52.014;5.190;2022-08-03T17:27:51;6.10;;;1.70;;
37859;SDS011;23698;52.014;5.190;2022-08-03T17:31:17;9.90;;;2.13;;
37859;SDS011;23698;52.014;5.190;2022-08-03T17:34:34;6.25;;;1.60;;
37859;SDS011;23698;52.014;5.190;2022-08-03T17:37:42;5.30;;;1.83;;
37859;SDS011;23698;52.014;5.190;2022-08-03T17:41:04;10.63;;;1.92;;
37859;SDS011;23698;52.014;5.190;2022-08-03T17:44:14;8.50;;;2.05;;
37859;SDS011;23698;52.014;5.190;2022-08-03T17:47:39;7.88;;;2.38;;
37859;SDS011;23698;52.014;5.190;2022-08-03T17:50:49;8.13;;;1.95;;
37859;SDS011;23698;52.014;5.190;2022-08-03T17:54:09;7.13;;;3.08;;
37859;SDS011;23698;52.014;5.190;2022-08-03T17:57:44;9.35;;;1.90;;
37859;SDS011;23698;52.014;5.190;2022-08-03T18:01:05;6.97;;;1.88;;
37859;SDS011;23698;52.014;5.190;2022-08-03T18:04:54;7.50;;;1.95;;
37859;SDS011;23698;52.014;5.190;2022-08-03T18:08:21;4.55;;;1.50;;
37859;SDS011;23698;52.014;5.190;2022-08-03T18:11:31;5.05;;;1.65;;
37859;SDS011;23698;52.014;5.190;2022-08-03T18:14:42;8.57;;;2.25;;
37859;SDS011;23698;52.014;5.190;2022-08-03T18:18:05;6.80;;;2.10;;
37859;SDS011;23698;52.014;5.190;2022-08-03T18:21:13;4.55;;;1.77;;
37859;SDS011;23698;52.014;5.190;2022-08-03T18:24:20;7.20;;;1.70;;
37859;SDS011;23698;52.014;5.190;2022-08-03T18:27:31;10.32;;;1.85;;
37859;SDS011;23698;52.014;5.190;2022-08-03T18:30:48;6.95;;;1.27;;
37859;SDS011;23698;52.014;5.190;2022-08-03T18:34:14;6.30;;;1.60;;
37859;SDS011;23698;52.014;5.190;2022-08-03T18:37:43;4.88;;;1.50;;
37859;SDS011;23698;52.014;5.190;2022-08-03T18:40:55;5.35;;;2.00;;
37859;SDS011;23698;52.014;5.190;2022-08-03T18:44:02;9.30;;;5.25;;
37859;SDS011;23698;52.014;5.190;2022-08-03T18:47:16;5.22;;;3.10;;
37859;SDS011;23698;52.014;5.190;2022-08-03T18:50:51;5.60;;;1.50;;
37859;SDS011;23698;52.014;5.190;2022-08-03T18:54:02;4.18;;;1.33;;
37859;SDS011;23698;52.014;5.190;2022-08-03T18:57:36;10.02;;;2.08;;
37859;SDS011;23698;52.014;5.190;2022-08-03T19:00:49;6.63;;;2.10;;
37859;SDS011;23698;52.014;5.190;2022-08-03T19:04:05;4.25;;;1.70;;
37859;SDS011;23698;52.014;5.190;2022-08-03T19:07:15;3.83;;;1.48;;
37859;SDS011;23698;52.014;5.190;2022-08-03T19:10:30;6.68;;;1.77;;